Aviation Digital Data Service (ADDS)

Output produced by METARs form (1711 UTC 29 May 2017)
found at http://www.aviationweather.gov/adds/metars/
 
FKKD 291700Z VRB04KT 9999 TS BKN016 SCT020CB 29/26 Q1011 NOSIG
TAF FKKD 291700Z 2918/3024 22003KT 9999 TS BKN016 SCT020CB 
     TEMPO 2918/2922 3000 TSRA BKN013 FEW016CB 
     BECMG 2920/2922 BKN012 FEW016CB 
     PROB30 
     TEMPO 3000/3004 2500 TSRA 
     BECMG 3006/3008 NSW BKN016 FEW020CB
       
FKKR 291700Z 00000KT 9999 FEW020 FEW023CB 34/22 Q1009 TEMPO TS
FKKN 291700Z 18006KT 9999 FEW020 28/19 Q1018
FKYS 291700Z 06017G30KT 030V110 9999 TS SQ BKN010 SCT020CB 24/19 Q1016 TEMPO 4000 TSRA
TAF FKYS 291700Z 2918/3018 23003KT 9999 TS BKN016 SCT023CB 
     TEMPO 2918/2920 3000 TSRA BKN012 SCT020CB 
     BECMG 2921/2923 NSW BKN006 
     PROB30 3004/3006 2500 BR 
     BECMG 3006/3008 BKN016 
     PROB30 3015/3020 TS BKN014 FEW020CB